Terminal Aerodrome Forecast
Issued by NWS

Home | Current Version | Previous Version | Text Only | Print | Product List | Glossary On
Versions: 1 2 3 4 5 6 7 8 9 10 11 12 13 14
630
FTUS44 KEPZ 251740
TAFDMN
TAF
KDMN 251740Z 2518/2618 07025G35KT P6SM FEW080 BKN120 BKN200
     FM260400 07023G35KT P6SM BKN060 BKN150
     FM261100 04025G35KT P6SM VCSH BKN025 BKN040 OVC080
     FM261700 07020G30KT P6SM SCT025 BKN040 BKN080=

USA.gov is the U.S. government's official web portal to all federal, state and local government web resources and services.